Parkview, Ohio
Current Conditions -  °F | °C
As of 9:51 AM on Friday 24 Oct 2014 (Local Time) from KCLE Reporting Station
Broken Clouds Broken Clouds  
Wind Chill: 44°   Ceiling: 25000
Heat Index: 47°   Visibility: 9mi
Dew Point: 42°   Wind: 6mph
Humidity: 83%   Direction: 220°SW
Pressure: 30.12"   Gusts: NA
Location:  41.4423°N, 81.8531°W
Report Text: KCLE 241351Z 22005KT 9SM BKN250 08/06 A3012 RMK AO2 SLP204 T00830056
Loading
Personal Weather Stations






























Interactive Weather Map
Tropical Storm Tracking
New forecast layout! Learn more

10-Day Weather Forecast

Advertisements
Track Severe Weather on mobile